Time;durP1;ratioP1;P1;durP2;ratioP2;P2;SDS_P1;SDS_P2;PMS_P1;PMS_P2;Temp;Humidity;BMP_temperature;BMP_pressure;BME280_temperature;BME280_humidity;BME280_pressure;Samples;Min_cycle;Max_cycle;Signal;HPM_P1;HPM_P2
2023/07/28 00:01:20;;;;;;;2.07;1.40;;;;;;;;;;5080568;28;20477;-81
2023/07/28 00:03:47;;;;;;;2.50;1.50;;;;;;;;;;5080434;28;20447;-81
2023/07/28 00:06:14;;;;;;;1.47;1.37;;;;;;;;;;5082517;28;20469;-81
2023/07/28 00:08:40;;;;;;;1.37;1.33;;;;;;;;;;5082405;28;20440;-81
2023/07/28 00:11:09;;;;;;;1.60;1.50;;;;;;;;;;5082505;28;20520;-81
2023/07/28 00:13:37;;;;;;;1.33;1.20;;;;;;;;;;5081668;28;20454;-81
2023/07/28 00:16:04;;;;;;;1.63;1.53;;;;;;;;;;5080152;28;20554;-81
2023/07/28 00:18:31;;;;;;;1.90;1.80;;;;;;;;;;5080888;28;21074;-81
2023/07/28 00:20:58;;;;;;;1.63;1.53;;;;;;;;;;5080367;28;20462;-81
2023/07/28 00:23:25;;;;;;;3.27;1.67;;;;;;;;;;5082019;28;20469;-81
2023/07/28 00:25:51;;;;;;;1.73;1.63;;;;;;;;;;5080296;28;20474;-81
2023/07/28 00:28:18;;;;;;;3.80;2.57;;;;;;;;;;5081645;28;20830;-81
2023/07/28 00:30:45;;;;;;;2.10;1.90;;;;;;;;;;5080261;28;20469;-81
2023/07/28 00:33:12;;;;;;;1.60;1.50;;;;;;;;;;5078771;28;20943;-81
2023/07/28 00:35:42;;;;;;;2.13;1.87;;;;;;;;;;5080700;28;20462;-81
2023/07/28 00:38:09;;;;;;;1.80;1.70;;;;;;;;;;5081394;28;20482;-80
2023/07/28 00:40:36;;;;;;;2.50;2.00;;;;;;;;;;5080710;27;20457;-81
2023/07/28 00:43:02;;;;;;;2.80;2.60;;;;;;;;;;5080814;28;20830;-81
2023/07/28 00:45:29;;;;;;;2.47;2.27;;;;;;;;;;5080219;28;20757;-81
2023/07/28 00:47:57;;;;;;;2.87;2.33;;;;;;;;;;5080479;28;20453;-80
2023/07/28 00:50:23;;;;;;;2.90;2.60;;;;;;;;;;5076987;28;20503;-81
2023/07/28 00:52:51;;;;;;;2.70;2.50;;;;;;;;;;5080526;28;20462;-81
2023/07/28 00:55:18;;;;;;;4.17;3.23;;;;;;;;;;5079912;28;20812;-81
2023/07/28 00:57:44;;;;;;;6.97;3.20;;;;;;;;;;5080754;28;20482;-81
2023/07/28 01:00:11;;;;;;;3.80;3.37;;;;;;;;;;5080600;28;20508;-81
2023/07/28 01:02:38;;;;;;;4.67;3.70;;;;;;;;;;5079587;28;20477;-81
2023/07/28 01:05:05;;;;;;;3.53;3.10;;;;;;;;;;5080438;28;20454;-81
2023/07/28 01:07:51;;;;;;;5.60;3.43;;;;;;;;;;5078434;28;20470;-81
2023/07/28 01:10:23;;;;;;;4.13;3.47;;;;;;;;;;5078787;28;20481;-81
2023/07/28 01:12:50;;;;;;;6.90;4.37;;;;;;;;;;5078658;28;20451;-81
2023/07/28 01:15:16;;;;;;;4.57;4.03;;;;;;;;;;5079001;28;20971;-81
2023/07/28 01:17:43;;;;;;;7.53;4.80;;;;;;;;;;5078763;28;20578;-81
2023/07/28 01:20:09;;;;;;;6.67;5.07;;;;;;;;;;5079897;28;20477;-80
2023/07/28 01:22:45;;;;;;;4.70;4.30;;;;;;;;;;5079532;28;20485;-80
2023/07/28 01:25:16;;;;;;;5.50;4.10;;;;;;;;;;5079709;28;20461;-81
2023/07/28 01:27:44;;;;;;;5.97;4.57;;;;;;;;;;5079483;28;20474;-81
2023/07/28 01:30:11;;;;;;;6.50;4.93;;;;;;;;;;5080769;28;20481;-81
2023/07/28 01:32:37;;;;;;;5.03;4.17;;;;;;;;;;5078333;28;20476;-81
2023/07/28 01:35:04;;;;;;;7.57;5.10;;;;;;;;;;5079983;28;20474;-80
2023/07/28 01:37:31;;;;;;;6.87;4.57;;;;;;;;;;5080018;28;20469;-81
2023/07/28 01:39:58;;;;;;;5.40;4.90;;;;;;;;;;5081633;28;20466;-81
2023/07/28 01:42:24;;;;;;;6.50;5.80;;;;;;;;;;5082306;28;21023;-81
2023/07/28 01:44:52;;;;;;;6.37;5.70;;;;;;;;;;5083615;28;20465;-81
2023/07/28 01:47:19;;;;;;;6.87;6.17;;;;;;;;;;5083521;28;20469;-81
2023/07/28 01:49:46;;;;;;;8.07;5.73;;;;;;;;;;5081594;28;20477;-81
2023/07/28 01:52:13;;;;;;;8.80;6.60;;;;;;;;;;5083175;28;20871;-81
2023/07/28 01:54:39;;;;;;;11.10;7.70;;;;;;;;;;5080443;28;20967;-80
2023/07/28 01:57:06;;;;;;;9.00;6.50;;;;;;;;;;5081036;28;20470;-81
2023/07/28 01:59:33;;;;;;;8.70;7.00;;;;;;;;;;5082515;28;20489;-81
2023/07/28 02:02:01;;;;;;;9.63;8.30;;;;;;;;;;5082633;28;20525;-81
2023/07/28 02:04:27;;;;;;;13.67;6.90;;;;;;;;;;5084740;28;20465;-81
2023/07/28 02:06:54;;;;;;;11.33;9.20;;;;;;;;;;5083420;28;20473;-80
2023/07/28 02:09:20;;;;;;;11.53;8.43;;;;;;;;;;5083373;28;20481;-80
2023/07/28 02:11:47;;;;;;;16.37;8.03;;;;;;;;;;5083429;28;20474;-81
2023/07/28 02:14:13;;;;;;;12.90;9.70;;;;;;;;;;5082548;28;20467;-80
2023/07/28 02:16:41;;;;;;;10.37;9.00;;;;;;;;;;5082474;28;20472;-80
2023/07/28 02:19:09;;;;;;;13.33;10.00;;;;;;;;;;5081767;28;20479;-80
2023/07/28 02:21:35;;;;;;;13.90;10.70;;;;;;;;;;5082739;28;20847;-80
2023/07/28 02:24:01;;;;;;;14.37;10.33;;;;;;;;;;5077641;28;21047;-80
2023/07/28 02:26:28;;;;;;;15.90;11.63;;;;;;;;;;5083047;28;20463;-81
2023/07/28 02:28:54;;;;;;;16.63;11.40;;;;;;;;;;5081520;28;20473;-80
2023/07/28 02:31:21;;;;;;;14.77;9.60;;;;;;;;;;5083003;28;21020;-81
2023/07/28 02:33:47;;;;;;;12.03;10.23;;;;;;;;;;5082093;28;20481;-81
2023/07/28 02:36:15;;;;;;;16.67;11.80;;;;;;;;;;5080872;28;20463;-80
2023/07/28 02:38:42;;;;;;;16.93;11.90;;;;;;;;;;5082042;28;20481;-81
2023/07/28 02:41:08;;;;;;;13.43;11.77;;;;;;;;;;5082133;28;20911;-81
2023/07/28 02:43:35;;;;;;;16.07;12.07;;;;;;;;;;5082054;28;20453;-81
2023/07/28 02:46:01;;;;;;;17.73;12.07;;;;;;;;;;5080904;28;20475;-80
2023/07/28 02:48:28;;;;;;;16.73;11.87;;;;;;;;;;5082766;28;20465;-80
2023/07/28 02:50:54;;;;;;;14.83;11.27;;;;;;;;;;5080198;28;20497;-80
2023/07/28 02:53:22;;;;;;;17.50;12.27;;;;;;;;;;5081390;28;20450;-80
2023/07/28 02:55:48;;;;;;;21.13;13.77;;;;;;;;;;5081495;28;21062;-81
2023/07/28 02:58:15;;;;;;;18.03;12.07;;;;;;;;;;5082459;28;20485;-81
2023/07/28 03:00:42;;;;;;;20.90;14.27;;;;;;;;;;5080240;28;20474;-81
2023/07/28 03:03:10;;;;;;;26.67;12.30;;;;;;;;;;5082813;28;20451;-80
2023/07/28 03:05:36;;;;;;;15.10;11.27;;;;;;;;;;5079474;28;20505;-81
2023/07/28 03:08:04;;;;;;;18.40;12.10;;;;;;;;;;5080961;28;20455;-80
2023/07/28 03:10:32;;;;;;;19.33;12.87;;;;;;;;;;5081104;28;20478;-81
2023/07/28 03:13:00;;;;;;;20.20;13.80;;;;;;;;;;5081445;28;20488;-81
2023/07/28 03:15:27;;;;;;;20.10;13.50;;;;;;;;;;5080261;28;21971;-81
2023/07/28 03:17:54;;;;;;;17.20;12.40;;;;;;;;;;5082751;28;20490;-81
2023/07/28 03:20:20;;;;;;;17.93;12.83;;;;;;;;;;5081526;28;20912;-81
2023/07/28 03:22:47;;;;;;;17.07;12.63;;;;;;;;;;5080898;28;20462;-81
2023/07/28 03:25:13;;;;;;;20.27;12.27;;;;;;;;;;5079318;28;20458;-82
2023/07/28 03:27:41;;;;;;;20.47;12.83;;;;;;;;;;5081884;28;20971;-81
2023/07/28 03:30:10;;;;;;;16.87;10.67;;;;;;;;;;5079869;28;20478;-81
2023/07/28 03:32:36;;;;;;;15.63;12.70;;;;;;;;;;5080082;28;20848;-81
2023/07/28 03:35:04;;;;;;;14.70;10.60;;;;;;;;;;5080540;28;20465;-81
2023/07/28 03:37:31;;;;;;;10.80;7.83;;;;;;;;;;5080351;28;20511;-81
2023/07/28 03:39:57;;;;;;;11.43;9.10;;;;;;;;;;5081753;28;20462;-81
2023/07/28 03:42:24;;;;;;;12.40;9.77;;;;;;;;;;5080063;28;20481;-81
2023/07/28 03:44:51;;;;;;;12.03;8.90;;;;;;;;;;5081357;28;20462;-81
2023/07/28 03:47:18;;;;;;;9.43;7.00;;;;;;;;;;5080840;28;20462;-81
2023/07/28 03:49:46;;;;;;;9.80;8.27;;;;;;;;;;5081021;28;20465;-81
2023/07/28 03:52:12;;;;;;;11.07;8.63;;;;;;;;;;5081690;28;21032;-81
2023/07/28 03:54:39;;;;;;;10.07;8.07;;;;;;;;;;5080094;28;20549;-81
2023/07/28 03:57:06;;;;;;;11.23;8.10;;;;;;;;;;5080688;28;20478;-81
2023/07/28 03:59:32;;;;;;;11.63;8.80;;;;;;;;;;5079973;28;20502;-81
2023/07/28 04:02:00;;;;;;;11.27;8.20;;;;;;;;;;5081257;28;20474;-81
2023/07/28 04:04:26;;;;;;;11.80;8.50;;;;;;;;;;5079506;28;20454;-81
2023/07/28 04:06:53;;;;;;;11.00;9.07;;;;;;;;;;5078934;28;20478;-81
2023/07/28 04:09:20;;;;;;;12.73;10.33;;;;;;;;;;5080731;28;20499;-81
2023/07/28 04:11:46;;;;;;;12.40;8.50;;;;;;;;;;5080599;28;20478;-80
2023/07/28 04:14:14;;;;;;;13.17;9.40;;;;;;;;;;5079913;28;20972;-80
2023/07/28 04:16:40;;;;;;;11.23;8.80;;;;;;;;;;5079302;28;20532;-80
2023/07/28 04:19:08;;;;;;;10.87;9.27;;;;;;;;;;5079044;28;20497;-80
2023/07/28 04:21:34;;;;;;;11.50;9.43;;;;;;;;;;5080799;28;20474;-80
2023/07/28 04:24:01;;;;;;;9.93;8.33;;;;;;;;;;5081152;28;20493;-81
2023/07/28 04:26:28;;;;;;;8.63;7.73;;;;;;;;;;5080178;27;20482;-80
2023/07/28 04:28:54;;;;;;;9.20;7.10;;;;;;;;;;5077467;28;20867;-80
2023/07/28 04:31:20;;;;;;;8.17;6.47;;;;;;;;;;5078497;28;20473;-79
2023/07/28 04:33:47;;;;;;;9.30;7.87;;;;;;;;;;5079091;28;20455;-81
2023/07/28 04:36:15;;;;;;;8.63;7.27;;;;;;;;;;5077907;28;20477;-80
2023/07/28 04:38:41;;;;;;;8.83;6.90;;;;;;;;;;5078291;28;20486;-80
2023/07/28 04:41:07;;;;;;;7.00;6.30;;;;;;;;;;5079974;28;20471;-81
2023/07/28 04:43:35;;;;;;;9.30;7.33;;;;;;;;;;5078897;28;20451;-81
2023/07/28 04:46:02;;;;;;;7.97;5.90;;;;;;;;;;5080717;28;20475;-81
2023/07/28 04:48:29;;;;;;;7.40;6.37;;;;;;;;;;5077887;28;20962;-80
2023/07/28 04:50:55;;;;;;;8.70;6.37;;;;;;;;;;5077917;28;20477;-80
2023/07/28 04:53:23;;;;;;;6.57;5.87;;;;;;;;;;5081908;28;20466;-80
2023/07/28 04:55:49;;;;;;;5.87;5.27;;;;;;;;;;5079074;28;20477;-81
2023/07/28 04:58:17;;;;;;;6.83;6.13;;;;;;;;;;5079243;28;20481;-80
2023/07/28 05:00:44;;;;;;;7.27;5.90;;;;;;;;;;5080166;27;20463;-81
2023/07/28 05:03:10;;;;;;;7.93;6.40;;;;;;;;;;5076688;28;21105;-81
2023/07/28 05:05:37;;;;;;;6.60;4.87;;;;;;;;;;5080283;28;20846;-81
2023/07/28 05:08:03;;;;;;;6.37;5.47;;;;;;;;;;5080001;28;20459;-81
2023/07/28 05:10:31;;;;;;;8.00;6.33;;;;;;;;;;5079952;28;20462;-81
2023/07/28 05:12:57;;;;;;;5.60;4.77;;;;;;;;;;5079484;28;20461;-81
2023/07/28 05:15:24;;;;;;;7.90;6.03;;;;;;;;;;5078763;28;20461;-82
2023/07/28 05:17:50;;;;;;;5.80;5.27;;;;;;;;;;5082767;28;20458;-81
2023/07/28 05:20:17;;;;;;;6.30;5.60;;;;;;;;;;5079966;28;20493;-82
2023/07/28 05:22:43;;;;;;;6.27;5.67;;;;;;;;;;5084010;28;20504;-81
2023/07/28 05:25:10;;;;;;;6.90;5.87;;;;;;;;;;5083979;28;20458;-81
2023/07/28 05:27:38;;;;;;;9.43;6.47;;;;;;;;;;5082603;28;20560;-81
2023/07/28 05:30:04;;;;;;;10.27;5.60;;;;;;;;;;5082894;28;20474;-81
2023/07/28 05:32:31;;;;;;;7.10;5.97;;;;;;;;;;5082580;28;20489;-81
2023/07/28 05:34:57;;;;;;;8.03;6.40;;;;;;;;;;5083740;28;20959;-81
2023/07/28 05:37:24;;;;;;;6.83;6.13;;;;;;;;;;5082096;27;20474;-80
2023/07/28 05:39:50;;;;;;;8.00;5.90;;;;;;;;;;5083938;28;20481;-81
2023/07/28 05:42:17;;;;;;;8.40;6.37;;;;;;;;;;5081749;28;20477;-81
2023/07/28 05:44:45;;;;;;;6.03;5.17;;;;;;;;;;5081975;28;20866;-81
2023/07/28 05:47:11;;;;;;;8.23;7.00;;;;;;;;;;5083214;28;20466;-81
2023/07/28 05:49:38;;;;;;;10.67;6.10;;;;;;;;;;5083426;28;20474;-80
2023/07/28 05:52:04;;;;;;;8.50;6.03;;;;;;;;;;5082126;28;20481;-81
2023/07/28 05:54:31;;;;;;;7.73;6.00;;;;;;;;;;5084599;28;20464;-80
2023/07/28 05:56:57;;;;;;;13.47;8.83;;;;;;;;;;5081426;28;20473;-81
2023/07/28 05:59:24;;;;;;;10.13;6.37;;;;;;;;;;5082296;28;20481;-80
2023/07/28 06:01:52;;;;;;;5.90;5.30;;;;;;;;;;5079747;28;20481;-81
2023/07/28 06:04:18;;;;;;;9.93;5.77;;;;;;;;;;5086971;28;20453;-80
2023/07/28 06:06:45;;;;;;;7.20;5.80;;;;;;;;;;5081104;28;20493;-80
2023/07/28 06:09:11;;;;;;;8.03;6.43;;;;;;;;;;5082998;28;20473;-81
2023/07/28 06:11:38;;;;;;;9.40;6.87;;;;;;;;;;5081515;28;20485;-84
2023/07/28 06:14:04;;;;;;;9.23;6.03;;;;;;;;;;5083895;28;20967;-81
2023/07/28 06:16:31;;;;;;;8.47;6.10;;;;;;;;;;5082510;28;20474;-81
2023/07/28 06:18:59;;;;;;;9.90;6.83;;;;;;;;;;5082185;28;20481;-82
2023/07/28 06:21:25;;;;;;;6.40;5.70;;;;;;;;;;5083778;28;20485;-81
2023/07/28 06:23:51;;;;;;;7.57;6.07;;;;;;;;;;5080584;28;21383;-82
2023/07/28 06:26:18;;;;;;;9.23;6.13;;;;;;;;;;5080426;28;20541;-81
2023/07/28 06:28:44;;;;;;;9.00;6.17;;;;;;;;;;5078537;28;20461;-81
2023/07/28 06:31:11;;;;;;;10.00;6.47;;;;;;;;;;5083171;28;20466;-81
2023/07/28 06:33:37;;;;;;;10.03;7.43;;;;;;;;;;5080296;28;20467;-81
2023/07/28 06:36:05;;;;;;;8.10;6.83;;;;;;;;;;5081109;28;20535;-81
2023/07/28 06:38:32;;;;;;;10.80;7.40;;;;;;;;;;5081974;28;20465;-81
2023/07/28 06:40:59;;;;;;;8.67;6.87;;;;;;;;;;5080339;28;20479;-82
2023/07/28 06:43:26;;;;;;;9.37;7.40;;;;;;;;;;5081830;28;20465;-81
2023/07/28 06:45:53;;;;;;;8.70;7.73;;;;;;;;;;5079693;28;20475;-81
2023/07/28 06:48:20;;;;;;;13.33;8.20;;;;;;;;;;5081107;28;20547;-81
2023/07/28 06:50:46;;;;;;;14.13;9.10;;;;;;;;;;5080900;28;20494;-81
2023/07/28 06:53:14;;;;;;;9.47;7.70;;;;;;;;;;5082670;28;20589;-81
2023/07/28 06:55:41;;;;;;;10.27;7.77;;;;;;;;;;5078903;28;20530;-81
2023/07/28 06:58:07;;;;;;;12.03;7.30;;;;;;;;;;5083089;28;21011;-81
2023/07/28 07:00:34;;;;;;;15.70;9.13;;;;;;;;;;5083934;28;21043;-81
2023/07/28 07:03:00;;;;;;;12.50;8.67;;;;;;;;;;5082763;28;20459;-81
2023/07/28 07:05:26;;;;;;;13.10;10.50;;;;;;;;;;5080319;28;20462;-82
2023/07/28 07:07:54;;;;;;;14.50;11.60;;;;;;;;;;5082984;28;20469;-81
2023/07/28 07:10:22;;;;;;;23.20;15.30;;;;;;;;;;5082253;27;20481;-82
2023/07/28 07:12:48;;;;;;;24.00;14.80;;;;;;;;;;5082543;28;20468;-81
2023/07/28 07:15:15;;;;;;;22.37;15.63;;;;;;;;;;5080211;28;20842;-81
2023/07/28 07:17:41;;;;;;;30.60;15.73;;;;;;;;;;5079304;28;20562;-81
2023/07/28 07:20:10;;;;;;;37.93;22.40;;;;;;;;;;5080807;28;20493;-80
2023/07/28 07:22:36;;;;;;;28.03;18.90;;;;;;;;;;5081452;28;20483;-82
2023/07/28 07:25:03;;;;;;;32.67;18.40;;;;;;;;;;5080405;28;20469;-82
2023/07/28 07:27:31;;;;;;;25.90;18.47;;;;;;;;;;5079593;28;20945;-81
2023/07/28 07:29:58;;;;;;;27.60;19.00;;;;;;;;;;5079494;28;20466;-81
2023/07/28 07:32:24;;;;;;;27.13;19.30;;;;;;;;;;5079454;28;20479;-81
2023/07/28 07:34:50;;;;;;;37.57;21.73;;;;;;;;;;5079791;28;20511;-82
2023/07/28 07:37:17;;;;;;;28.80;19.60;;;;;;;;;;5081400;28;20481;-80
2023/07/28 07:39:44;;;;;;;29.73;19.53;;;;;;;;;;5079473;28;20487;-81
2023/07/28 07:42:11;;;;;;;30.37;20.53;;;;;;;;;;5081026;28;20477;-81
2023/07/28 07:44:39;;;;;;;29.40;18.90;;;;;;;;;;5080121;28;20454;-81
2023/07/28 07:47:12;;;;;;;28.13;20.40;;;;;;;;;;5079257;28;20500;-80
2023/07/28 07:49:39;;;;;;;29.37;21.60;;;;;;;;;;5080609;28;20481;-81
2023/07/28 07:52:07;;;;;;;30.60;19.70;;;;;;;;;;5080576;27;21587;-81
2023/07/28 07:54:34;;;;;;;29.60;19.63;;;;;;;;;;5080828;28;20458;-81
2023/07/28 07:57:00;;;;;;;21.47;14.00;;;;;;;;;;5078105;28;20547;-81
2023/07/28 07:59:30;;;;;;;11.33;7.70;;;;;;;;;;5081552;28;20482;-81
2023/07/28 08:02:00;;;;;;;10.63;6.50;;;;;;;;;;5081628;28;20489;-81
2023/07/28 08:04:26;;;;;;;12.10;6.10;;;;;;;;;;5079066;28;20508;-81
2023/07/28 08:06:54;;;;;;;8.80;5.87;;;;;;;;;;5080864;28;20482;-81
2023/07/28 08:09:20;;;;;;;8.57;4.73;;;;;;;;;;5082720;28;20479;-81
2023/07/28 08:11:47;;;;;;;10.73;6.33;;;;;;;;;;5081566;28;20473;-81
2023/07/28 08:14:13;;;;;;;6.60;4.80;;;;;;;;;;5080358;28;20480;-82
2023/07/28 08:16:40;;;;;;;7.10;4.80;;;;;;;;;;5081170;28;20477;-81
2023/07/28 08:19:07;;;;;;;6.73;6.03;;;;;;;;;;5079885;28;20469;-82
2023/07/28 08:21:38;;;;;;;6.57;5.97;;;;;;;;;;5081227;28;20489;-82
2023/07/28 08:24:04;;;;;;;10.37;8.33;;;;;;;;;;5079909;28;20451;-82
2023/07/28 08:26:31;;;;;;;14.73;11.30;;;;;;;;;;5081308;28;21018;-81
2023/07/28 08:28:58;;;;;;;18.37;12.60;;;;;;;;;;5079484;28;20473;-81
2023/07/28 08:31:24;;;;;;;18.80;11.63;;;;;;;;;;5081001;28;20530;-81
2023/07/28 08:33:51;;;;;;;15.77;12.37;;;;;;;;;;5079555;28;20470;-81
2023/07/28 08:36:19;;;;;;;14.90;11.90;;;;;;;;;;5080099;28;20474;-81
2023/07/28 08:38:46;;;;;;;17.67;13.33;;;;;;;;;;5079869;28;20464;-81
2023/07/28 08:41:13;;;;;;;19.63;12.67;;;;;;;;;;5081087;28;20478;-81
2023/07/28 08:43:39;;;;;;;18.03;14.40;;;;;;;;;;5079428;28;20979;-81
2023/07/28 08:46:06;;;;;;;20.23;14.47;;;;;;;;;;5081080;28;21110;-81
2023/07/28 08:48:33;;;;;;;20.03;13.23;;;;;;;;;;5077640;28;20468;-78
2023/07/28 08:50:59;;;;;;;17.90;14.20;;;;;;;;;;5082164;28;21097;-81
2023/07/28 08:53:29;;;;;;;17.90;14.80;;;;;;;;;;5084061;28;20459;-81
2023/07/28 08:55:56;;;;;;;22.23;15.40;;;;;;;;;;5084176;28;20843;-81
2023/07/28 08:58:23;;;;;;;15.37;13.77;;;;;;;;;;5083155;28;20789;-81
2023/07/28 09:00:50;;;;;;;22.93;15.50;;;;;;;;;;5077960;28;20564;-81
2023/07/28 09:03:17;;;;;;;22.57;14.60;;;;;;;;;;5084484;28;20472;-81
2023/07/28 09:05:44;;;;;;;16.87;15.00;;;;;;;;;;5084595;28;20477;-81
2023/07/28 09:08:10;;;;;;;19.20;15.40;;;;;;;;;;5085410;28;20835;-81
2023/07/28 09:10:46;;;;;;;16.93;15.23;;;;;;;;;;5084909;28;21002;-81
2023/07/28 09:13:13;;;;;;;27.10;17.20;;;;;;;;;;5083728;28;20584;-81
2023/07/28 09:15:39;;;;;;;21.10;15.70;;;;;;;;;;5081493;28;20460;-81
2023/07/28 09:18:08;;;;;;;21.20;14.70;;;;;;;;;;5084880;28;20468;-81
2023/07/28 09:20:35;;;;;;;21.37;14.70;;;;;;;;;;5084579;28;20933;-81
2023/07/28 09:23:02;;;;;;;17.43;14.47;;;;;;;;;;5084507;28;21007;-80
2023/07/28 09:25:29;;;;;;;20.97;15.53;;;;;;;;;;5082661;28;20459;-80
2023/07/28 09:27:57;;;;;;;17.43;14.57;;;;;;;;;;5082856;28;20466;-80
2023/07/28 09:30:25;;;;;;;14.70;13.10;;;;;;;;;;5083638;28;20473;-82
2023/07/28 09:32:52;;;;;;;18.53;12.33;;;;;;;;;;5084478;28;20454;-81
2023/07/28 09:35:20;;;;;;;17.43;12.13;;;;;;;;;;5083296;28;20473;-81
2023/07/28 09:37:48;;;;;;;16.50;10.97;;;;;;;;;;5084890;28;20465;-80
2023/07/28 09:40:15;;;;;;;12.97;8.83;;;;;;;;;;5082896;28;20959;-81
2023/07/28 09:42:49;;;;;;;10.20;8.90;;;;;;;;;;5082793;28;20860;-80
2023/07/28 09:45:17;;;;;;;10.77;9.00;;;;;;;;;;5079909;28;20469;-80
2023/07/28 09:47:44;;;;;;;9.37;8.47;;;;;;;;;;5082706;28;20481;-80
2023/07/28 09:50:11;;;;;;;16.30;9.03;;;;;;;;;;5081718;28;20487;-80
2023/07/28 09:52:43;;;;;;;11.10;8.83;;;;;;;;;;5083979;28;21039;-80
2023/07/28 09:55:11;;;;;;;12.57;9.30;;;;;;;;;;5084307;28;20459;-81
2023/07/28 09:57:39;;;;;;;10.77;9.47;;;;;;;;;;5082717;28;20473;-80
2023/07/28 10:00:08;;;;;;;11.03;8.60;;;;;;;;;;5081902;28;20492;-80
2023/07/28 10:02:37;;;;;;;9.20;8.20;;;;;;;;;;5082262;28;20717;-80
2023/07/28 10:05:04;;;;;;;15.33;8.77;;;;;;;;;;5083589;28;20458;-80
2023/07/28 10:07:31;;;;;;;11.40;7.73;;;;;;;;;;5082756;27;20476;-80
2023/07/28 10:09:58;;;;;;;10.03;8.00;;;;;;;;;;5083162;28;20468;-82
2023/07/28 10:12:24;;;;;;;9.47;7.23;;;;;;;;;;5081807;28;20477;-81
2023/07/28 10:15:00;;;;;;;8.77;7.80;;;;;;;;;;5083705;28;20933;-80
2023/07/28 10:17:31;;;;;;;10.67;7.83;;;;;;;;;;5082077;28;20476;-80
2023/07/28 10:19:59;;;;;;;8.17;7.47;;;;;;;;;;5084411;28;20477;-80
2023/07/28 10:22:27;;;;;;;10.83;8.10;;;;;;;;;;5082939;28;20474;-80
2023/07/28 10:24:55;;;;;;;8.93;7.90;;;;;;;;;;5084074;28;20454;-80
2023/07/28 10:27:29;;;;;;;8.47;7.57;;;;;;;;;;5082617;28;20478;-80
2023/07/28 10:29:59;;;;;;;9.70;7.17;;;;;;;;;;5081769;28;20546;-80
2023/07/28 10:32:26;;;;;;;7.70;6.90;;;;;;;;;;5080601;28;20569;-80
2023/07/28 10:35:01;;;;;;;7.70;7.07;;;;;;;;;;5082898;28;20467;-80
2023/07/28 10:37:27;;;;;;;6.83;6.23;;;;;;;;;;5083111;28;20514;-81
2023/07/28 10:40:09;;;;;;;11.03;7.33;;;;;;;;;;5082660;28;20855;-80
2023/07/28 10:42:35;;;;;;;8.30;6.40;;;;;;;;;;5082123;28;20479;-81
2023/07/28 10:45:03;;;;;;;7.90;5.67;;;;;;;;;;5082988;28;20484;-81
2023/07/28 10:47:29;;;;;;;8.97;6.00;;;;;;;;;;5081455;28;20485;-81
2023/07/28 10:49:55;;;;;;;9.50;5.37;;;;;;;;;;5082889;28;21309;-81
2023/07/28 10:52:27;;;;;;;9.80;5.53;;;;;;;;;;5080247;28;20470;-81
2023/07/28 10:54:54;;;;;;;7.33;6.30;;;;;;;;;;5082156;28;20482;-81
2023/07/28 10:57:20;;;;;;;7.97;5.90;;;;;;;;;;5083378;28;20501;-81
2023/07/28 10:59:50;;;;;;;7.23;5.10;;;;;;;;;;5082364;28;20972;-80
2023/07/28 11:02:16;;;;;;;7.83;6.27;;;;;;;;;;5082913;28;20492;-80
2023/07/28 11:04:46;;;;;;;5.87;5.17;;;;;;;;;;5083447;28;20911;-81
2023/07/28 11:07:13;;;;;;;5.33;4.80;;;;;;;;;;5079518;28;20474;-81
2023/07/28 11:09:41;;;;;;;5.03;4.53;;;;;;;;;;5082233;28;20513;-80
2023/07/28 11:12:09;;;;;;;5.00;4.57;;;;;;;;;;5079699;28;20481;-81
2023/07/28 11:14:36;;;;;;;6.67;4.40;;;;;;;;;;5079796;28;20508;-81
2023/07/28 11:17:02;;;;;;;4.97;4.57;;;;;;;;;;5081386;28;20470;-80
2023/07/28 11:19:29;;;;;;;5.83;4.63;;;;;;;;;;5082402;28;20983;-81
2023/07/28 11:21:56;;;;;;;4.83;4.43;;;;;;;;;;5077620;28;20485;-81
2023/07/28 11:24:23;;;;;;;7.10;4.40;;;;;;;;;;5082307;28;20459;-81
2023/07/28 11:26:51;;;;;;;5.30;4.80;;;;;;;;;;5081925;28;20609;-81
2023/07/28 11:29:18;;;;;;;4.83;4.40;;;;;;;;;;5081554;28;20555;-80
2023/07/28 11:31:46;;;;;;;5.17;4.67;;;;;;;;;;5082328;28;20487;-81
2023/07/28 11:34:15;;;;;;;4.90;4.50;;;;;;;;;;5080598;28;20466;-80
2023/07/28 11:36:42;;;;;;;4.33;3.93;;;;;;;;;;5080034;28;20474;-81
2023/07/28 11:39:10;;;;;;;4.80;4.10;;;;;;;;;;5080030;28;21032;-80
2023/07/28 11:41:37;;;;;;;5.53;5.10;;;;;;;;;;5079693;28;20557;-80
2023/07/28 11:44:04;;;;;;;4.90;4.50;;;;;;;;;;5083093;28;20451;-81
2023/07/28 11:46:34;;;;;;;5.53;4.50;;;;;;;;;;5081428;28;20478;-80
2023/07/28 11:49:07;;;;;;;4.10;3.80;;;;;;;;;;5082494;28;20490;-81
2023/07/28 11:51:38;;;;;;;5.40;4.27;;;;;;;;;;5082361;28;20474;-81
2023/07/28 11:54:04;;;;;;;4.80;4.30;;;;;;;;;;5081924;28;20538;-81
2023/07/28 11:56:31;;;;;;;7.20;4.87;;;;;;;;;;5076441;28;20485;-81
2023/07/28 11:58:57;;;;;;;5.27;4.77;;;;;;;;;;5080893;28;21090;-82
2023/07/28 12:01:25;;;;;;;5.00;4.50;;;;;;;;;;5081924;28;20479;-81
2023/07/28 12:03:52;;;;;;;6.40;5.80;;;;;;;;;;5080886;28;20461;-81
2023/07/28 12:06:18;;;;;;;5.40;4.87;;;;;;;;;;5081229;28;20470;-81
2023/07/28 12:08:44;;;;;;;7.10;5.00;;;;;;;;;;5081175;28;20450;-81
2023/07/28 12:11:13;;;;;;;6.20;5.10;;;;;;;;;;5081722;28;20489;-81
2023/07/28 12:13:48;;;;;;;7.00;4.67;;;;;;;;;;5081622;28;20458;-81
2023/07/28 12:16:29;;;;;;;5.73;5.00;;;;;;;;;;5081579;28;20505;-81
2023/07/28 12:19:00;;;;;;;8.13;4.30;;;;;;;;;;5080524;28;21015;-81
2023/07/28 12:21:26;;;;;;;6.20;4.70;;;;;;;;;;5079972;28;20471;-81
2023/07/28 12:23:52;;;;;;;4.53;4.13;;;;;;;;;;5081905;28;20462;-81
2023/07/28 12:26:19;;;;;;;4.97;4.03;;;;;;;;;;5078707;28;20474;-81
2023/07/28 12:28:46;;;;;;;5.10;4.60;;;;;;;;;;5078277;28;20450;-81
2023/07/28 12:31:12;;;;;;;4.47;3.83;;;;;;;;;;5079535;27;20474;-81
2023/07/28 12:33:40;;;;;;;4.20;3.70;;;;;;;;;;5079188;28;20470;-81
2023/07/28 12:36:09;;;;;;;6.40;3.80;;;;;;;;;;5080839;28;20554;-81
2023/07/28 12:38:35;;;;;;;5.40;4.10;;;;;;;;;;5081481;28;20481;-81
2023/07/28 12:41:02;;;;;;;3.90;3.60;;;;;;;;;;5079626;28;20478;-81
2023/07/28 12:43:29;;;;;;;4.43;3.73;;;;;;;;;;5081315;28;20481;-81
2023/07/28 12:45:56;;;;;;;5.40;4.00;;;;;;;;;;5081610;28;20458;-81
2023/07/28 12:48:22;;;;;;;3.33;3.03;;;;;;;;;;5080309;28;20975;-81
2023/07/28 12:50:49;;;;;;;5.80;3.50;;;;;;;;;;5079718;28;21015;-81
2023/07/28 12:53:17;;;;;;;3.63;3.33;;;;;;;;;;5080483;28;20465;-80
2023/07/28 12:55:43;;;;;;;4.10;3.70;;;;;;;;;;5079969;27;20461;-80
2023/07/28 12:58:09;;;;;;;5.23;4.00;;;;;;;;;;5082036;28;20963;-81
2023/07/28 13:00:36;;;;;;;4.57;3.10;;;;;;;;;;5079111;27;20481;-81
2023/07/28 13:03:02;;;;;;;5.57;3.67;;;;;;;;;;5080973;28;20462;-81
2023/07/28 13:05:28;;;;;;;4.40;3.40;;;;;;;;;;5078722;28;20466;-80
2023/07/28 13:07:55;;;;;;;4.00;3.60;;;;;;;;;;5080262;28;20455;-81
2023/07/28 13:10:22;;;;;;;3.50;3.17;;;;;;;;;;5080899;28;20484;-80
2023/07/28 13:12:49;;;;;;;7.20;3.50;;;;;;;;;;5081263;28;20479;-81
2023/07/28 13:15:15;;;;;;;4.40;3.57;;;;;;;;;;5079780;28;20493;-81
2023/07/28 13:17:42;;;;;;;4.47;3.90;;;;;;;;;;5079616;28;20466;-81
2023/07/28 13:20:10;;;;;;;3.70;3.33;;;;;;;;;;5080646;28;20474;-81
2023/07/28 13:22:37;;;;;;;4.53;4.10;;;;;;;;;;5080243;28;20485;-81
2023/07/28 13:25:03;;;;;;;5.90;3.50;;;;;;;;;;5080243;28;20463;-81
2023/07/28 13:27:31;;;;;;;4.17;3.77;;;;;;;;;;5080511;28;20473;-80
2023/07/28 13:29:58;;;;;;;3.40;3.10;;;;;;;;;;5080054;28;20485;-80
2023/07/28 13:32:26;;;;;;;3.30;2.80;;;;;;;;;;5079910;28;20466;-81
2023/07/28 13:34:53;;;;;;;6.07;3.57;;;;;;;;;;5077397;28;21362;-81
2023/07/28 13:37:19;;;;;;;3.23;2.93;;;;;;;;;;5082469;28;20479;-81
2023/07/28 13:39:47;;;;;;;3.07;2.87;;;;;;;;;;5083760;28;20480;-81
2023/07/28 13:42:15;;;;;;;4.57;3.03;;;;;;;;;;5082167;28;20470;-81
2023/07/28 13:44:43;;;;;;;4.60;3.50;;;;;;;;;;5083905;28;20466;-81
2023/07/28 13:47:09;;;;;;;3.93;3.23;;;;;;;;;;5082167;27;20475;-81
2023/07/28 13:49:36;;;;;;;4.03;3.63;;;;;;;;;;5083368;28;20486;-80
2023/07/28 13:52:04;;;;;;;3.80;3.40;;;;;;;;;;5078108;28;20482;-80
2023/07/28 13:54:31;;;;;;;3.90;3.60;;;;;;;;;;5081557;28;20838;-81
2023/07/28 13:56:57;;;;;;;3.73;3.43;;;;;;;;;;5083006;28;20738;-80
2023/07/28 13:59:23;;;;;;;3.43;3.13;;;;;;;;;;5081895;28;20826;-81
2023/07/28 14:01:53;;;;;;;4.40;3.37;;;;;;;;;;5082987;28;20475;-80
2023/07/28 14:04:19;;;;;;;2.80;2.60;;;;;;;;;;5084050;28;20985;-80
2023/07/28 14:06:45;;;;;;;3.03;2.73;;;;;;;;;;5079550;28;20481;-81
2023/07/28 14:09:13;;;;;;;3.70;3.40;;;;;;;;;;5083931;28;20500;-81
2023/07/28 14:11:39;;;;;;;3.10;2.90;;;;;;;;;;5082926;28;20467;-80
2023/07/28 14:14:05;;;;;;;3.53;3.20;;;;;;;;;;5084802;28;20462;-80
2023/07/28 14:16:32;;;;;;;4.77;3.40;;;;;;;;;;5079938;28;20467;-80
2023/07/28 14:18:59;;;;;;;3.07;2.87;;;;;;;;;;5082688;28;20492;-80
2023/07/28 14:21:26;;;;;;;3.43;3.13;;;;;;;;;;5081210;28;20853;-80
2023/07/28 14:23:52;;;;;;;3.10;2.80;;;;;;;;;;5080700;28;20546;-81
2023/07/28 14:26:19;;;;;;;4.17;3.70;;;;;;;;;;5082802;28;20481;-81
2023/07/28 14:28:47;;;;;;;2.90;2.70;;;;;;;;;;5082708;28;21196;-81
2023/07/28 14:31:13;;;;;;;3.70;3.40;;;;;;;;;;5080152;28;20479;-81
2023/07/28 14:33:39;;;;;;;3.97;2.73;;;;;;;;;;5082558;28;20465;-80
2023/07/28 14:36:07;;;;;;;3.53;3.23;;;;;;;;;;5082948;27;20475;-81